Map

Track Data

SID SEASON NUMBER BASIN SUBBASIN NAME ISO_TIME NATURE LAT LON WMO_WIND WMO_PRES WMO_AGENCY TRACK_TYPE DIST2LAND LANDFALL IFLAG USA_AGENCY USA_ATCF_ID USA_LAT USA_LON USA_RECORD USA_STATUS USA_WIND USA_PRES USA_SSHS USA_R34_NE USA_R34_SE USA_R34_SW USA_R34_NW USA_R50_NE USA_R50_SE USA_R50_SW USA_R50_NW USA_R64_NE USA_R64_SE USA_R64_SW USA_R64_NW USA_POCI USA_ROCI USA_RMW USA_EYE TOKYO_LAT TOKYO_LON TOKYO_GRADE TOKYO_WIND TOKYO_PRES TOKYO_R50_DIR TOKYO_R50_LONG TOKYO_R50_SHORT TOKYO_R30_DIR TOKYO_R30_LONG TOKYO_R30_SHORT TOKYO_LAND CMA_LAT CMA_LON CMA_CAT CMA_WIND CMA_PRES HKO_LAT HKO_LON HKO_CAT HKO_WIND HKO_PRES NEWDELHI_LAT NEWDELHI_LON NEWDELHI_GRADE NEWDELHI_WIND NEWDELHI_PRES NEWDELHI_CI NEWDELHI_DP NEWDELHI_POCI REUNION_LAT REUNION_LON REUNION_TYPE REUNION_WIND REUNION_PRES REUNION_TNUM REUNION_CI REUNION_RMW REUNION_R34_NE REUNION_R34_SE REUNION_R34_SW REUNION_R34_NW REUNION_R50_NE REUNION_R50_SE REUNION_R50_SW REUNION_R50_NW REUNION_R64_NE REUNION_R64_SE REUNION_R64_SW REUNION_R64_NW BOM_LAT BOM_LON BOM_TYPE BOM_WIND BOM_PRES BOM_TNUM BOM_CI BOM_RMW BOM_R34_NE BOM_R34_SE BOM_R34_SW BOM_R34_NW BOM_R50_NE BOM_R50_SE BOM_R50_SW BOM_R50_NW BOM_R64_NE BOM_R64_SE BOM_R64_SW BOM_R64_NW BOM_ROCI BOM_POCI BOM_EYE BOM_POS_METHOD BOM_PRES_METHOD NADI_LAT NADI_LON NADI_CAT NADI_WIND NADI_PRES WELLINGTON_LAT WELLINGTON_LON WELLINGTON_WIND WELLINGTON_PRES DS824_LAT DS824_LON DS824_STAGE DS824_WIND DS824_PRES TD9636_LAT TD9636_LON TD9636_STAGE TD9636_WIND TD9636_PRES TD9635_LAT TD9635_LON TD9635_WIND TD9635_PRES TD9635_ROCI NEUMANN_LAT NEUMANN_LON NEUMANN_CLASS NEUMANN_WIND NEUMANN_PRES MLC_LAT MLC_LON MLC_CLASS MLC_WIND MLC_PRES USA_GUST BOM_GUST BOM_GUST_PER REUNION_GUST REUNION_GUST_PER USA_SEAHGT USA_SEARAD_NE USA_SEARAD_SE USA_SEARAD_SW USA_SEARAD_NW STORM_SPEED STORM_DIR
2022188N10264 2022 36 EP MM DARBY 2022-07-07 00:00:00 NR 9.90000 -96.0000 PROVISIONAL 641 638 O_____________ nhc_working_bt EP052022 9.90000 -96.0000 DB 20 1010 -3 1011 120 70 12 271
2022188N10264 2022 36 EP MM DARBY 2022-07-07 03:00:00 NR 9.91021 -96.5999 PROVISIONAL 638 638 P_____________ EP052022 9.91021 -96.5999 DB 20 1010 -3 1011 120 70 12 270
2022188N10264 2022 36 EP MM DARBY 2022-07-07 06:00:00 NR 9.90000 -97.2000 PROVISIONAL 641 641 O_____________ nhc_working_bt EP052022 9.90000 -97.2000 DB 20 1010 -3 1011 120 70 12 268
2022188N10264 2022 36 EP MM DARBY 2022-07-07 09:00:00 NR 9.86989 -97.8002 PROVISIONAL 651 651 P_____________ EP052022 9.86989 -97.8002 DB 20 1010 -3 1011 120 70 12 270
2022188N10264 2022 36 EP MM DARBY 2022-07-07 12:00:00 NR 9.90000 -98.4000 PROVISIONAL 667 667 O_____________ nhc_working_bt EP052022 9.90000 -98.4000 DB 20 1010 -3 1011 120 70 12 279
2022188N10264 2022 36 EP MM DARBY 2022-07-07 15:00:00 NR 10.0548 -98.9851 PROVISIONAL 668 664 P_____________ EP052022 10.0548 -98.9851 DB 20 1010 -3 1011 120 70 13 289
2022188N10264 2022 36 EP MM DARBY 2022-07-07 18:00:00 NR 10.3000 -99.6000 PROVISIONAL 667 658 O_____________ nhc_working_bt EP052022 10.3000 -99.6000 DB 20 1010 -3 1011 120 70 14 292
2022188N10264 2022 36 EP MM DARBY 2022-07-07 21:00:00 NR 10.5697 -100.255 PROVISIONAL 662 653 P_____________ EP052022 10.5697 -100.255 DB 20 1009 -3 1010 135 75 15 294
2022188N10264 2022 36 EP MM DARBY 2022-07-08 00:00:00 NR 10.9000 -101.000 PROVISIONAL 657 645 O_____________ nhc_working_bt EP052022 10.9000 -101.000 DB 20 1009 -3 1010 150 80 17 295
2022188N10264 2022 36 EP MM DARBY 2022-07-08 03:00:00 NR 11.3074 -101.862 PROVISIONAL 649 640 P_____________ EP052022 11.3074 -101.862 DB 22 1009 -3 1010 150 80 19 294
2022188N10264 2022 36 EP MM DARBY 2022-07-08 06:00:00 NR 11.7000 -102.800 PROVISIONAL 651 648 O_____________ nhc_working_bt EP052022 11.7000 -102.800 DB 25 1009 -3 1010 150 80 20 290
2022188N10264 2022 36 EP MM DARBY 2022-07-08 09:00:00 NR 11.9798 -103.750 PROVISIONAL 660 660 P_____________ EP052022 11.9798 -103.750 DB 25 1009 -3 1010 150 80 19 285
2022188N10264 2022 36 EP MM DARBY 2022-07-08 12:00:00 NR 12.2000 -104.700 PROVISIONAL 687 687 O_____________ nhc_working_bt EP052022 12.2000 -104.700 DB 25 1009 -3 1011 150 80 19 283
2022188N10264 2022 36 EP MM DARBY 2022-07-08 15:00:00 NR 12.3923 -105.630 PROVISIONAL 697 697 P_____________ EP052022 12.3923 -105.630 DB 25 1009 -3 1011 150 80 18 283
2022188N10264 2022 36 EP MM DARBY 2022-07-08 18:00:00 NR 12.6000 -106.500 PROVISIONAL 714 714 O_____________ nhc_working_bt EP052022 12.6000 -106.500 DB 25 1009 -3 1011 150 80 17 288
2022188N10264 2022 36 EP MM DARBY 2022-07-08 21:00:00 NR 12.9070 -107.265 PROVISIONAL 728 725 P_____________ EP052022 12.9070 -107.265 DB 25 1009 -3 1011 150 80 16 292
2022188N10264 2022 36 EP MM DARBY 2022-07-09 00:00:00 NR 13.2000 -108.000 PROVISIONAL 746 746 O_____________ nhc_working_bt EP052022 13.2000 -108.000 DB 25 1009 -3 1011 150 80 16 287
2022188N10264 2022 36 EP MM DARBY 2022-07-09 03:00:00 NR 13.3725 -108.808 PROVISIONAL 776 776 P_____________ EP052022 13.3725 -108.808 DB 25 1009 -3 1011 150 80 16 281
2022188N10264 2022 36 EP MM DARBY 2022-07-09 06:00:00 NR 13.5000 -109.600 PROVISIONAL 818 818 O_____________ nhc_working_bt EP052022 13.5000 -109.600 DB 25 1009 -3 1011 150 80 15 281
2022188N10264 2022 36 EP MM DARBY 2022-07-09 09:00:00 NR 13.6419 -110.285 PROVISIONAL 858 857 P_____________ EP052022 13.6419 -110.285 DB 27 1008 -3 1011 150 80 14 282
2022188N10264 2022 36 EP MM DARBY 2022-07-09 12:00:00 NR 13.8000 -111.000 PROVISIONAL 895 895 O_____________ nhc_working_bt EP052022 13.8000 -111.000 DB 30 1008 -3 1011 150 80 40 16 283
2022188N10264 2022 36 EP MM DARBY 2022-07-09 15:00:00 NR 14.0153 -111.900 PROVISIONAL 948 948 P_____________ EP052022 14.0153 -111.900 DB 32 1007 -3 1011 150 50 18 283
2022188N10264 2022 36 EP MM DARBY 2022-07-09 18:00:00 TS 14.2000 -112.800 PROVISIONAL 1007 1007 O_____________ nhc_working_bt EP052022 14.2000 -112.800 TS 35 1006 0 30 1011 150 20 40 16 279
2022188N10264 2022 36 EP MM DARBY 2022-07-09 21:00:00 TS 14.2701 -113.531 PROVISIONAL 1030 1030 P_____________ EP052022 14.2796 -113.538 TS 37 1005 0 30 1011 150 20 14 274
2022188N10264 2022 36 EP MM DARBY 2022-07-10 00:00:00 TS 14.3000 -114.200 PROVISIONAL 1058 1058 O_____________ nhc_working_bt EP052022 14.3000 -114.200 TS 40 1004 0 30 20 1011 150 20 50 13 272
2022188N10264 2022 36 EP MM DARBY 2022-07-10 03:00:00 TS 14.3072 -114.819 PROVISIONAL 1086 1086 P_____________ EP052022 14.3073 -114.858 TS 40 1004 0 30 20 1011 125 20 12 270
2022188N10264 2022 36 EP MM DARBY 2022-07-10 06:00:00 TS 14.3000 -115.433 PROVISIONAL 1117 1117 O_____________ nhc_working_bt EP052022 14.3000 -115.500 TS 40 1004 0 30 20 1012 100 20 50 12 60 12 269
2022188N10264 2022 36 EP MM DARBY 2022-07-10 09:00:00 TS 14.2922 -116.089 PROVISIONAL 1156 1156 P_____________ EP052022 14.2921 -116.128 TS 45 1003 0 35 30 1012 100 20 12 60 13 270
2022188N10264 2022 36 EP MM DARBY 2022-07-10 12:00:00 TS 14.3000 -116.800 PROVISIONAL 1199 1199 O_____________ nhc_working_bt EP052022 14.3000 -116.800 TS 50 1002 0 40 30 40 20 1012 100 20 60 12 60 15 272
2022188N10264 2022 36 EP MM DARBY 2022-07-10 15:00:00 TS 14.3350 -117.590 PROVISIONAL 1251 1251 P_____________ EP052022 14.3350 -117.585 TS 52 1000 0 40 30 40 20 1011 95 15 16 274
2022188N10264 2022 36 EP MM DARBY 2022-07-10 18:00:00 TS 14.4000 -118.400 PROVISIONAL 1298 1298 O_____________ nhc_working_bt EP052022 14.4000 -118.400 TS 55 999 0 40 30 20 40 20 20 1011 90 10 15 277
2022188N10264 2022 36 EP MM DARBY 2022-07-10 21:00:00 TS 14.5148 -119.172 PROVISIONAL 1348 1348 P_____________ EP052022 14.5148 -119.172 TS 60 996 0 45 35 25 45 25 25 1011 90 10 15 278
2022188N10264 2022 36 EP MM DARBY 2022-07-11 00:00:00 TS 14.6000 -119.900 PROVISIONAL 1393 1393 O_____________ nhc_working_bt EP052022 14.6000 -119.900 HU 65 993 1 50 40 30 50 30 20 11 30 10 1011 90 10 75 13 272
2022188N10264 2022 36 EP MM DARBY 2022-07-11 03:00:00 TS 14.5645 -120.543 PROVISIONAL 1430 1430 P_____________ EP052022 14.5645 -120.543 HU 75 990 1 50 40 30 50 30 20 11 30 10 1011 90 10 13 265
2022188N10264 2022 36 EP MM DARBY 2022-07-11 06:00:00 TS 14.5000 -121.200 PROVISIONAL 1485 1485 O_____________ nhc_working_bt EP052022 14.5000 -121.200 HU 85 988 2 50 40 30 50 30 20 11 30 11 11 11 1012 90 10 105 12 90 45 30 45 14 267
2022188N10264 2022 36 EP MM DARBY 2022-07-11 09:00:00 TS 14.4850 -121.985 PROVISIONAL 1540 1540 P_____________ EP052022 14.4850 -121.985 HU 95 978 2 50 40 30 50 30 20 11 30 11 11 11 1012 90 7 12 97 52 37 52 16 270
2022188N10264 2022 36 EP MM DARBY 2022-07-11 12:00:00 TS 14.5000 -122.800 PROVISIONAL 1597 1597 O_____________ nhc_working_bt EP052022 14.5000 -122.800 HU 105 968 3 50 40 30 50 30 20 11 30 11 11 5 11 1012 90 5 130 12 105 60 45 60 15 272
2022188N10264 2022 36 EP MM DARBY 2022-07-11 15:00:00 TS 14.5346 -123.550 PROVISIONAL 1657 1657 P_____________ EP052022 14.5346 -123.550 HU 110 963 3 50 40 30 50 30 20 15 30 11 11 8 11 1012 90 5 12 105 60 45 60 15 274
2022188N10264 2022 36 EP MM DARBY 2022-07-11 18:00:00 TS 14.6000 -124.300 PROVISIONAL 1702 1702 O_____________ nhc_working_bt EP052022 14.6000 -124.300 HU 115 958 4 50 40 30 50 30 20 20 30 11 11 11 11 1012 90 5 140 12 105 60 45 60 15 277
2022188N10264 2022 36 EP MM DARBY 2022-07-11 21:00:00 TS 14.7149 -125.100 PROVISIONAL 1758 1758 P_____________ EP052022 14.7149 -125.100 HU 117 956 4 50 40 30 50 30 20 20 30 11 11 11 11 1012 90 5 12 112 82 52 60 16 277
2022188N10264 2022 36 EP MM DARBY 2022-07-12 00:00:00 TS 14.8000 -125.900 PROVISIONAL 1815 1815 O_____________ nhc_working_bt EP052022 14.8000 -125.900 HU 120 954 4 50 40 30 50 30 20 20 30 11 11 11 11 1012 90 5 145 12 120 105 60 60 15 272
2022188N10264 2022 36 EP MM DARBY 2022-07-12 03:00:00 TS 14.7646 -126.650 PROVISIONAL 1881 1881 P_____________ EP052022 14.7646 -126.650 HU 120 954 4 50 40 30 50 30 20 20 30 11 11 11 11 1012 105 7 12 127 112 67 67 15 266
2022188N10264 2022 36 EP MM DARBY 2022-07-12 06:00:00 TS 14.7000 -127.400 PROVISIONAL 1937 1937 O_____________ nhc_working_bt EP052022 14.7000 -127.400 HU 120 954 4 50 40 30 50 30 20 20 30 11 11 11 11 1012 120 10 145 12 135 120 75 75 15 268
2022188N10264 2022 36 EP MM DARBY 2022-07-12 09:00:00 TS 14.6999 -128.200 PROVISIONAL 1992 1992 P_____________ EP052022 14.6999 -128.200 HU 117 955 4 45 35 30 45 30 20 20 30 11 11 11 11 1012 120 10 12 135 105 75 82 15 270
2022188N10264 2022 36 EP MM DARBY 2022-07-12 12:00:00 TS 14.7000 -129.000 PROVISIONAL 2050 2050 O_____________ nhc_working_bt EP052022 14.7000 -129.000 HU 115 957 4 40 30 30 40 30 20 20 30 11 11 11 11 1012 120 10 140 12 135 90 75 90 15 268
2022188N10264 2022 36 EP MM DARBY 2022-07-12 15:00:00 TS 14.6497 -129.758 PROVISIONAL 2117 2117 P_____________ EP052022 14.6497 -129.758 HU 110 961 3 45 35 30 45 30 20 20 30 11 11 11 11 1012 135 10 12 142 90 82 105 15 266
2022188N10264 2022 36 EP MM DARBY 2022-07-12 18:00:00 TS 14.6000 -130.500 PROVISIONAL 2170 2170 O_____________ nhc_working_bt EP052022 14.6000 -130.500 HU 105 966 3 50 40 30 50 30 20 20 30 11 11 11 11 1012 150 10 130 12 150 90 90 120 15 268
2022188N10264 2022 36 EP MM DARBY 2022-07-12 21:00:00 TS 14.5924 -131.265 PROVISIONAL 2231 2231 P_____________ EP052022 14.5924 -131.265 HU 100 969 3 45 40 30 45 25 20 20 25 11 11 11 11 1011 135 10 12 150 90 90 120 15 270
2022188N10264 2022 36 EP MM DARBY 2022-07-13 00:00:00 TS 14.6000 -132.000 PROVISIONAL 2286 2286 O_____________ nhc_working_bt EP052022 14.6000 -132.000 HU 95 972 2 40 40 30 40 20 20 20 20 11 11 11 11 1010 120 10 115 12 150 90 90 120 13 270
2022188N10264 2022 36 EP MM DARBY 2022-07-13 03:00:00 TS 14.5846 -132.658 PROVISIONAL 2342 2342 P_____________ EP052022 14.5846 -132.658 HU 90 975 2 40 40 30 40 20 20 20 20 11 11 11 11 1011 120 10 12 142 90 90 120 13 270
2022188N10264 2022 36 EP MM DARBY 2022-07-13 06:00:00 TS 14.6000 -133.300 PROVISIONAL 2348 2273 O_____________ nhc_working_bt EP052022 14.6000 -133.300 HU 85 978 2 40 40 30 40 20 20 20 20 11 11 11 11 1012 120 10 105 12 135 90 90 120 13 274
2022188N10264 2022 36 EP MM DARBY 2022-07-13 09:00:00 TS 14.6774 -134.000 PROVISIONAL 2273 2198 P_____________ EP052022 14.6774 -134.000 HU 87 977 2 40 35 30 40 20 20 20 20 11 11 11 11 1011 120 10 12 127 90 82 105 14 278
2022188N10264 2022 36 EP MM DARBY 2022-07-13 12:00:00 TS 14.8000 -134.700 PROVISIONAL 2198 2133 O_____________ nhc_working_bt EP052022 14.8000 -134.700 HU 90 977 2 40 30 30 40 20 20 20 20 11 11 11 11 1011 120 10 110 12 120 90 75 90 13 281
2022188N10264 2022 36 EP MM DARBY 2022-07-13 15:00:00 TS 14.9307 -135.347 PROVISIONAL 2133 2054 P_____________ EP052022 14.9271 -135.343 HU 92 974 2 40 30 30 40 20 20 20 20 11 11 11 11 1011 120 10 12 120 82 75 97 13 283
2022188N10264 2022 36 EP MM DARBY 2022-07-13 18:00:00 TS 15.1000 -136.000 PROVISIONAL 2054 1976 O_____________ nhc_working_bt EP052022 15.1000 -136.000 HU 95 971 2 40 30 30 40 20 20 20 20 11 11 11 11 1011 120 10 115 12 120 75 75 105 14 287
2022188N10264 2022 36 EP MM DARBY 2022-07-13 21:00:00 TS 15.3425 -136.742 PROVISIONAL 1976 1884 P_____________ EP052022 15.3425 -136.742 HU 97 969 3 40 27 27 40 22 17 17 22 13 13 1011 105 10 15 289
2022188N10264 2022 36 EP MM DARBY 2022-07-14 00:00:00 TS 15.6000 -137.500 PROVISIONAL 1884 1806 O_____________ nhc_working_bt EP052022 15.6000 -137.500 HU 100 968 3 40 25 25 40 25 15 15 25 15 15 1011 90 10 120 15 288
2022188N10264 2022 36 EP MM DARBY 2022-07-14 03:00:00 TS 15.7998 -138.215 PROVISIONAL 1806 1728 P_____________ EP052022 15.7998 -138.215 HU 97 969 3 40 25 25 40 25 15 15 25 15 15 1011 90 10 14 287
2022188N10264 2022 36 EP MM DARBY 2022-07-14 06:00:00 TS 16.0000 -138.900 PROVISIONAL 1728 1660 O_____________ nhc_working_bt EP052022 16.0000 -138.900 HU 95 971 2 40 25 25 40 25 15 15 25 15 10 10 15 1012 90 10 115 12 120 75 75 120 14 289
2022188N10264 2022 36 EP MM DARBY 2022-07-14 09:00:00 TS 16.2498 -139.561 PROVISIONAL 1650 1579 P_____________ EP052022 16.2497 -139.558 HU 92 974 2 40 25 25 40 25 15 15 25 15 10 10 15 1012 90 10 12 120 75 75 120 13 292
2022188N10264 2022 36 EP CP DARBY 2022-07-14 12:00:00 TS 16.5000 -140.200 PROVISIONAL 1579 1512 O_____________ nhc_working_bt EP052022 16.5000 -140.200 HU 90 977 2 40 25 25 40 25 15 15 25 15 10 10 15 1012 90 10 110 12 120 75 75 120 13 291
2022188N10264 2022 36 EP CP DARBY 2022-07-14 15:00:00 TS 16.7035 -140.825 PROVISIONAL 1512 1444 P_____________ EP052022 16.7073 -140.850 HU 87 978 2 40 25 25 40 25 15 15 25 15 10 10 15 1012 92 10 12 120 75 75 120 13 288
2022188N10264 2022 36 EP CP DARBY 2022-07-14 18:00:00 TS 16.9000 -141.450 PROVISIONAL 1444 1367 O_____________ nhc_working_bt EP052022 16.9000 -141.500 HU 85 980 2 40 25 25 40 25 15 15 25 15 10 10 15 1012 95 10 105 12 120 75 75 120 13 290
2022188N10264 2022 36 EP CP DARBY 2022-07-14 21:00:00 TS 17.1510 -142.092 PROVISIONAL 1364 1299 P_____________ EP052022 17.1223 -142.150 HU 80 982 1 40 25 25 40 22 12 12 20 12 12 1012 95 10 12 120 75 75 120 13 290
2022188N10264 2022 36 EP CP DARBY 2022-07-15 00:00:00 TS 17.3500 -142.750 PROVISIONAL 1297 1225 O_____________ nhc_working_bt EP052022 17.3000 -142.800 HU 75 985 1 40 25 25 40 20 10 10 15 10 10 1012 95 10 100 12 120 75 75 120 13 281
2022188N10264 2022 36 EP CP DARBY 2022-07-15 03:00:00 TS 17.4011 -143.425 PROVISIONAL 1225 1152 P_____________ EP052022 17.3723 -143.450 HU 70 987 1 45 30 25 45 20 10 10 17 10 10 1013 90 10 13 272
2022188N10264 2022 36 EP CP DARBY 2022-07-15 06:00:00 TS 17.4000 -144.100 PROVISIONAL 1152 1090 O_____________ nhc_working_bt EP052022 17.4000 -144.100 HU 65 990 1 50 35 25 50 20 10 10 20 10 10 1015 85 10 80 13 272
2022188N10264 2022 36 EP CP DARBY 2022-07-15 09:00:00 TS 17.4459 -144.746 PROVISIONAL 1090 1016 P_____________ EP052022 17.4497 -144.743 HU 62 991 0 50 32 22 50 17 7 17 1014 80 10 12 275
2022188N10264 2022 36 EP CP DARBY 2022-07-15 12:00:00 TS 17.5000 -145.400 PROVISIONAL 1016 954 O_____________ nhc_working_bt EP052022 17.5000 -145.400 TS 60 993 0 50 30 20 50 15 5 15 1013 75 10 75 12 110 60 50 100 13 275
2022188N10264 2022 36 EP CP DARBY 2022-07-15 15:00:00 TS 17.5496 -146.070 PROVISIONAL 944 869 P_____________ EP052022 17.5496 -146.070 TS 55 997 0 50 30 20 50 15 5 15 1013 82 12 12 110 65 60 100 13 274
2022188N10264 2022 36 EP CP DARBY 2022-07-15 18:00:00 TS 17.6000 -146.800 PROVISIONAL 869 785 O_____________ nhc_working_bt EP052022 17.6000 -146.800 TS 50 1002 0 50 30 20 50 15 5 15 1014 90 15 60 12 110 70 70 100 15 274
2022188N10264 2022 36 EP CP DARBY 2022-07-15 21:00:00 TS 17.6648 -147.620 PROVISIONAL 785 693 P_____________ EP052022 17.6573 -147.620 TS 45 1004 0 50 30 20 50 1014 90 15 12 110 70 70 100 16 274
2022188N10264 2022 36 EP CP DARBY 2022-07-16 00:00:00 TS 17.7000 -148.500 PROVISIONAL 693 613 O_____________ nhc_working_bt EP052022 17.7000 -148.500 TS 40 1006 0 50 30 20 50 1014 90 15 50 12 110 70 70 100 17 270
2022188N10264 2022 36 EP CP DARBY 2022-07-16 03:00:00 TS 17.6569 -149.374 PROVISIONAL 603 529 P_____________ EP052022 17.7070 -149.378 TS 40 1006 0 47 27 17 47 1014 87 15 12 102 62 67 97 17 267
2022188N10264 2022 36 EP CP DARBY 2022-07-16 06:00:00 TS 17.6000 -150.300 PROVISIONAL 519 434 O_____________ nhc_working_bt EP052022 17.7000 -150.300 TS 40 1006 0 45 25 15 45 1014 85 15 50 12 95 55 65 95 18 268
2022188N10264 2022 36 EP CP DARBY 2022-07-16 09:00:00 TS 17.5846 -151.299 PROVISIONAL 425 338 P_____________ EP052022 17.6995 -151.270 TS 40 1006 0 47 25 15 47 1014 85 15 12 92 42 37 85 19 270
2022188N10264 2022 36 EP CP DARBY 2022-07-16 12:00:00 TS 17.6143 -152.343 PROVISIONAL 338 245 O_____________ nhc_working_bt EP052022 17.7000 -152.300 TS 40 1006 0 50 25 15 50 1014 85 15 50 12 90 30 10 75 20 272
2022188N10264 2022 36 EP CP DARBY 2022-07-16 15:00:00 TS 17.6619 -153.419 PROVISIONAL 245 189 P_____________ EP052022 17.6999 -153.400 TS 37 1006 0 40 40 1014 72 27 12 90 30 10 75 21 272
2022188N10264 2022 36 EP CP DARBY 2022-07-16 18:00:00 TS 17.7000 -154.500 PROVISIONAL 184 135 O_____________ nhc_working_bt EP052022 17.7000 -154.500 TS 35 1007 0 30 30 1014 60 40 45 12 90 30 10 75 20 271
2022188N10264 2022 36 EP CP DARBY 2022-07-16 21:00:00 TS 17.7007 -155.525 PROVISIONAL 135 134 P_____________ EP052022 17.7007 -155.525 TS 35 1007 0 30 30 1014 60 35 12 85 25 67 19 270
2022188N10264 2022 36 EP CP DARBY 2022-07-17 00:00:00 TS 17.7000 -156.500 PROVISIONAL 158 O_____________ nhc_working_bt EP052022 17.7000 -156.500 TS 35 1007 0 30 30 1014 60 30 45 12 80 20 60 19 270

About IBTrACS Database

This database is a web-friendly format of International Best Track Archive for Climate Stewardship (IBTrACS), a global best track data archive curated by NOAA dating back to 1842.

Updated: 2022-08-18